Time,TemperatureF,DewpointF,PressureIn,WindDirection,WindDirectionDegrees,WindSpeedMPH,WindSpeedGustMPH,Humidity,HourlyPrecipIn,Conditions,Clouds,dailyrainin,SoftwareType,DateUTC
2013-04-27 00:00:00,43.6,43.1,30.27,NE,49,2.0,5.0,98,0.00,,,0.00,Wunderground v.1.15,2013-04-27 07:00:00,
2013-04-27 00:05:00,43.5,43.0,30.27,NE,49,3.0,5.0,98,0.00,,,0.00,Wunderground v.1.15,2013-04-27 07:05:00,
2013-04-27 00:10:00,43.4,42.9,30.27,NE,49,3.0,3.0,98,0.00,,,0.00,Wunderground v.1.15,2013-04-27 07:10:00,
2013-04-27 00:16:00,43.2,42.7,30.27,NE,49,3.0,4.0,98,0.00,,,0.00,Wunderground v.1.15,2013-04-27 07:16:00,
2013-04-27 00:21:00,43.1,42.6,30.27,NE,49,3.0,4.0,98,0.00,,,0.00,Wunderground v.1.15,2013-04-27 07:21:00,
2013-04-27 00:26:00,42.9,42.4,30.27,NE,51,4.0,6.0,98,0.00,,,0.00,Wunderground v.1.15,2013-04-27 07:26:00,
2013-04-27 00:31:00,42.9,42.4,30.27,ENE,59,4.0,5.0,98,0.00,,,0.00,Wunderground v.1.15,2013-04-27 07:31:00,
2013-04-27 00:37:00,43.0,42.5,30.27,ENE,65,4.0,5.0,98,0.00,,,0.00,Wunderground v.1.15,2013-04-27 07:37:00,
2013-04-27 00:43:00,43.1,42.6,30.27,ENE,65,4.0,5.0,98,0.00,,,0.00,Wunderground v.1.15,2013-04-27 07:43:00,
2013-04-27 00:48:00,43.0,42.5,30.27,ENE,65,4.0,5.0,98,0.00,,,0.00,Wunderground v.1.15,2013-04-27 07:48:00,
2013-04-27 00:55:00,43.0,42.5,30.27,ENE,65,4.0,7.0,98,0.00,,,0.00,Wunderground v.1.15,2013-04-27 07:55:00,
2013-04-27 01:01:00,43.0,42.5,30.27,ENE,65,4.0,6.0,98,0.00,,,0.00,Wunderground v.1.15,2013-04-27 08:01:00,
2013-04-27 01:06:00,43.0,42.5,30.27,ENE,65,3.0,6.0,98,0.00,,,0.00,Wunderground v.1.15,2013-04-27 08:06:00,
2013-04-27 01:13:00,42.9,42.4,30.27,ENE,65,4.0,7.0,98,0.00,,,0.00,Wunderground v.1.15,2013-04-27 08:13:00,
2013-04-27 01:19:00,42.9,42.4,30.27,ENE,65,4.0,7.0,98,0.00,,,0.00,Wunderground v.1.15,2013-04-27 08:19:00,
2013-04-27 01:25:00,42.9,42.4,30.27,ENE,65,3.0,6.0,98,0.00,,,0.00,Wunderground v.1.15,2013-04-27 08:25:00,
2013-04-27 01:31:00,42.8,42.3,30.27,ENE,65,3.0,6.0,98,0.00,,,0.00,Wunderground v.1.15,2013-04-27 08:31:00,
2013-04-27 01:37:00,42.8,42.3,30.27,ENE,65,4.0,6.0,98,0.00,,,0.00,Wunderground v.1.15,2013-04-27 08:37:00,
2013-04-27 01:43:00,42.9,42.4,30.27,ENE,65,4.0,6.0,98,0.00,,,0.00,Wunderground v.1.15,2013-04-27 08:43:00,
2013-04-27 01:48:00,42.9,42.4,30.27,ENE,65,4.0,6.0,98,0.00,,,0.00,Wunderground v.1.15,2013-04-27 08:48:00,
2013-04-27 01:53:00,42.8,42.3,30.27,ENE,65,4.0,6.0,98,0.00,,,0.00,Wunderground v.1.15,2013-04-27 08:53:00,
2013-04-27 01:58:00,42.9,42.4,30.27,ENE,65,4.0,6.0,98,0.00,,,0.00,Wunderground v.1.15,2013-04-27 08:58:00,
2013-04-27 02:04:00,42.9,42.4,30.27,ENE,65,4.0,7.0,98,0.00,,,0.00,Wunderground v.1.15,2013-04-27 09:04:00,
2013-04-27 02:09:00,43.0,42.5,30.27,ENE,65,4.0,6.0,98,0.00,,,0.00,Wunderground v.1.15,2013-04-27 09:09:00,
2013-04-27 02:15:00,43.1,42.6,30.27,ENE,65,4.0,7.0,98,0.00,,,0.00,Wunderground v.1.15,2013-04-27 09:15:00,
2013-04-27 02:21:00,43.1,42.6,30.27,ENE,65,4.0,6.0,98,0.00,,,0.00,Wunderground v.1.15,2013-04-27 09:21:00,
2013-04-27 02:26:00,43.1,42.6,30.27,ENE,65,4.0,6.0,98,0.00,,,0.00,Wunderground v.1.15,2013-04-27 09:26:00,
2013-04-27 02:32:00,42.9,42.4,30.27,ENE,65,4.0,6.0,98,0.00,,,0.00,Wunderground v.1.15,2013-04-27 09:32:00,
2013-04-27 02:38:00,42.9,42.4,30.27,ENE,65,4.0,6.0,98,0.00,,,0.00,Wunderground v.1.15,2013-04-27 09:38:00,
2013-04-27 02:44:00,42.9,42.4,30.27,ENE,65,4.0,6.0,98,0.00,,,0.00,Wunderground v.1.15,2013-04-27 09:44:00,
2013-04-27 02:50:00,42.8,42.3,30.27,ENE,65,4.0,6.0,98,0.00,,,0.00,Wunderground v.1.15,2013-04-27 09:50:00,
2013-04-27 02:55:00,42.8,42.3,30.27,ENE,65,3.0,6.0,98,0.00,,,0.00,Wunderground v.1.15,2013-04-27 09:55:00,
2013-04-27 03:01:00,42.8,42.3,30.27,ENE,65,3.0,6.0,98,0.00,,,0.00,Wunderground v.1.15,2013-04-27 10:01:00,
2013-04-27 03:07:00,42.9,42.4,30.27,ENE,65,3.0,6.0,98,0.00,,,0.00,Wunderground v.1.15,2013-04-27 10:07:00,
2013-04-27 03:13:00,43.0,42.5,30.27,ENE,65,4.0,6.0,98,0.00,,,0.00,Wunderground v.1.15,2013-04-27 10:13:00,
2013-04-27 03:19:00,43.2,42.9,30.27,ENE,65,4.0,7.0,99,0.00,,,0.00,Wunderground v.1.15,2013-04-27 10:19:00,
2013-04-27 03:24:00,43.4,43.1,30.27,ENE,65,3.0,6.0,99,0.00,,,0.00,Wunderground v.1.15,2013-04-27 10:24:00,
2013-04-27 03:29:00,43.5,43.2,30.27,ENE,65,4.0,6.0,99,0.00,,,0.00,Wunderground v.1.15,2013-04-27 10:29:00,
2013-04-27 03:35:00,43.6,43.3,30.27,ENE,65,3.0,6.0,99,0.00,,,0.00,Wunderground v.1.15,2013-04-27 10:35:00,
2013-04-27 03:40:00,43.6,43.3,30.27,ENE,64,3.0,3.0,99,0.00,,,0.00,Wunderground v.1.15,2013-04-27 10:40:00,
2013-04-27 03:45:00,43.6,43.3,30.27,NE,40,3.0,6.0,99,0.00,,,0.00,Wunderground v.1.15,2013-04-27 10:45:00,
2013-04-27 03:50:00,43.6,43.1,30.27,NE,42,3.0,6.0,98,0.00,,,0.00,Wunderground v.1.15,2013-04-27 10:50:00,
2013-04-27 03:55:00,43.6,43.3,30.27,NE,40,3.0,6.0,99,0.00,,,0.00,Wunderground v.1.15,2013-04-27 10:55:00,
2013-04-27 04:01:00,43.5,43.0,30.27,North,5,4.0,6.0,98,0.00,,,0.00,Wunderground v.1.15,2013-04-27 11:01:00,
2013-04-27 04:06:00,43.4,42.9,30.28,North,5,5.0,7.0,98,0.00,,,0.00,Wunderground v.1.15,2013-04-27 11:06:00,
2013-04-27 04:11:00,43.4,42.9,30.27,North,5,4.0,6.0,98,0.00,,,0.00,Wunderground v.1.15,2013-04-27 11:11:00,
2013-04-27 04:17:00,43.2,42.7,30.27,North,5,3.0,6.0,98,0.00,,,0.00,Wunderground v.1.15,2013-04-27 11:17:00,
2013-04-27 04:23:00,43.2,42.9,30.27,North,5,4.0,6.0,99,0.00,,,0.00,Wunderground v.1.15,2013-04-27 11:23:00,
2013-04-27 04:28:00,43.2,42.9,30.27,NNE,17,4.0,6.0,99,0.00,,,0.00,Wunderground v.1.15,2013-04-27 11:28:00,
2013-04-27 04:34:00,43.0,42.7,30.27,NNE,18,3.0,6.0,99,0.00,,,0.00,Wunderground v.1.15,2013-04-27 11:34:00,
2013-04-27 04:39:00,42.8,42.3,30.27,NNE,19,3.0,6.0,98,0.00,,,0.00,Wunderground v.1.15,2013-04-27 11:39:00,
2013-04-27 04:45:00,42.7,42.2,30.27,NNE,24,3.0,6.0,98,0.00,,,0.00,Wunderground v.1.15,2013-04-27 11:45:00,
2013-04-27 04:50:00,42.7,42.4,30.27,NNE,24,2.0,6.0,99,0.00,,,0.00,Wunderground v.1.15,2013-04-27 11:50:00,
2013-04-27 04:56:00,42.7,42.4,30.27,NNE,24,2.0,6.0,99,0.00,,,0.00,Wunderground v.1.15,2013-04-27 11:56:00,
2013-04-27 05:02:00,42.7,42.4,30.27,NNE,24,4.0,6.0,99,0.00,,,0.00,Wunderground v.1.15,2013-04-27 12:02:00,
2013-04-27 05:08:00,42.6,42.3,30.27,NNE,24,2.0,6.0,99,0.00,,,0.00,Wunderground v.1.15,2013-04-27 12:08:00,
2013-04-27 05:14:00,42.7,42.4,30.26,NNE,24,2.0,6.0,99,0.00,,,0.00,Wunderground v.1.15,2013-04-27 12:14:00,
2013-04-27 05:19:00,42.5,42.2,30.26,NNE,24,2.0,6.0,99,0.00,,,0.00,Wunderground v.1.15,2013-04-27 12:19:00,
2013-04-27 05:25:00,42.4,41.9,30.26,NNE,24,2.0,6.0,98,0.00,,,0.00,Wunderground v.1.15,2013-04-27 12:25:00,
2013-04-27 05:30:00,42.4,41.9,30.26,NNE,24,2.0,6.0,98,0.00,,,0.00,Wunderground v.1.15,2013-04-27 12:30:00,
2013-04-27 05:35:00,42.5,42.2,30.26,NNE,24,1.0,6.0,99,0.00,,,0.00,Wunderground v.1.15,2013-04-27 12:35:00,
2013-04-27 05:41:00,42.7,42.4,30.26,NNE,24,1.0,6.0,99,0.00,,,0.00,Wunderground v.1.15,2013-04-27 12:41:00,
2013-04-27 05:46:00,42.8,42.5,30.26,NNE,24,1.0,6.0,99,0.00,,,0.00,Wunderground v.1.15,2013-04-27 12:46:00,
2013-04-27 05:51:00,42.5,42.2,30.26,NNE,24,2.0,6.0,99,0.00,,,0.00,Wunderground v.1.15,2013-04-27 12:51:00,
2013-04-27 05:57:00,42.3,41.8,30.26,NNE,24,3.0,6.0,98,0.00,,,0.00,Wunderground v.1.15,2013-04-27 12:57:00,
2013-04-27 06:02:00,42.2,41.7,30.25,NNE,28,2.0,6.0,98,0.00,,,0.00,Wunderground v.1.15,2013-04-27 13:02:00,
2013-04-27 06:08:00,42.1,41.8,30.25,NNE,28,3.0,6.0,99,0.00,,,0.00,Wunderground v.1.15,2013-04-27 13:08:00,
2013-04-27 06:14:00,42.0,41.7,30.26,NNE,28,2.0,6.0,99,0.00,,,0.00,Wunderground v.1.15,2013-04-27 13:14:00,
2013-04-27 06:20:00,41.9,41.6,30.25,NNE,28,2.0,6.0,99,0.00,,,0.00,Wunderground v.1.15,2013-04-27 13:20:00,
2013-04-27 06:25:00,42.0,41.7,30.25,NNE,28,3.0,6.0,99,0.00,,,0.00,Wunderground v.1.15,2013-04-27 13:25:00,
2013-04-27 06:31:00,42.1,41.8,30.26,NNE,28,3.0,6.0,99,0.00,,,0.00,Wunderground v.1.15,2013-04-27 13:31:00,
2013-04-27 06:37:00,42.2,41.9,30.26,NNE,28,2.0,6.0,99,0.00,,,0.00,Wunderground v.1.15,2013-04-27 13:37:00,
2013-04-27 06:43:00,42.2,41.9,30.26,NNE,28,2.0,6.0,99,0.00,,,0.00,Wunderground v.1.15,2013-04-27 13:43:00,
2013-04-27 06:49:00,42.2,41.9,30.26,NNE,28,3.0,6.0,99,0.00,,,0.00,Wunderground v.1.15,2013-04-27 13:49:00,
2013-04-27 06:54:00,42.3,42.0,30.25,NNE,33,4.0,6.0,99,0.00,,,0.00,Wunderground v.1.15,2013-04-27 13:54:00,
2013-04-27 07:00:00,42.3,42.0,30.26,NNE,33,4.0,4.0,99,0.00,,,0.00,Wunderground v.1.15,2013-04-27 14:00:00,
2013-04-27 07:06:00,42.2,41.9,30.26,NE,40,4.0,7.0,99,0.00,,,0.00,Wunderground v.1.15,2013-04-27 14:06:00,
2013-04-27 07:11:00,42.2,41.9,30.26,NE,44,4.0,6.0,99,0.00,,,0.00,Wunderground v.1.15,2013-04-27 14:11:00,
2013-04-27 07:17:00,42.3,42.0,30.26,NE,44,4.0,6.0,99,0.00,,,0.00,Wunderground v.1.15,2013-04-27 14:17:00,
2013-04-27 07:22:00,42.4,42.1,30.26,NE,44,4.0,6.0,99,0.00,,,0.00,Wunderground v.1.15,2013-04-27 14:22:00,
2013-04-27 07:27:00,42.7,42.4,30.26,NE,44,3.0,6.0,99,0.00,,,0.00,Wunderground v.1.15,2013-04-27 14:27:00,
2013-04-27 07:32:00,42.7,42.4,30.26,NE,44,3.0,6.0,99,0.00,,,0.00,Wunderground v.1.15,2013-04-27 14:32:00,
2013-04-27 07:38:00,42.8,42.5,30.27,NE,44,3.0,6.0,99,0.00,,,0.00,Wunderground v.1.15,2013-04-27 14:38:00,
2013-04-27 07:43:00,42.9,42.6,30.27,NE,44,3.0,6.0,99,0.00,,,0.00,Wunderground v.1.15,2013-04-27 14:43:00,
2013-04-27 07:48:00,42.9,42.6,30.27,NE,44,3.0,6.0,99,0.00,,,0.00,Wunderground v.1.15,2013-04-27 14:48:00,
2013-04-27 07:54:00,42.9,42.6,30.27,NE,44,3.0,6.0,99,0.00,,,0.00,Wunderground v.1.15,2013-04-27 14:54:00,
2013-04-27 07:59:00,43.1,42.8,30.28,NE,44,3.0,6.0,99,0.00,,,0.00,Wunderground v.1.15,2013-04-27 14:59:00,
2013-04-27 08:04:00,43.3,43.0,30.28,NE,52,3.0,7.0,99,0.00,,,0.00,Wunderground v.1.15,2013-04-27 15:04:00,
2013-04-27 08:09:00,43.5,43.2,30.27,NE,53,4.0,4.0,99,0.00,,,0.00,Wunderground v.1.15,2013-04-27 15:09:00,
2013-04-27 08:15:00,43.7,43.4,30.27,NE,53,4.0,6.0,99,0.00,,,0.00,Wunderground v.1.15,2013-04-27 15:15:00,
2013-04-27 08:20:00,43.8,43.5,30.28,NE,53,4.0,6.0,99,0.00,,,0.00,Wunderground v.1.15,2013-04-27 15:20:00,
2013-04-27 08:26:00,43.9,43.6,30.28,NE,53,4.0,6.0,99,0.00,,,0.00,Wunderground v.1.15,2013-04-27 15:26:00,
2013-04-27 08:32:00,43.9,43.6,30.28,NE,53,4.0,6.0,99,0.00,,,0.00,Wunderground v.1.15,2013-04-27 15:32:00,
2013-04-27 08:37:00,44.2,43.9,30.28,NE,53,5.0,6.0,99,0.00,,,0.00,Wunderground v.1.15,2013-04-27 15:37:00,
2013-04-27 08:43:00,44.5,44.2,30.28,NE,53,4.0,6.0,99,0.00,,,0.00,Wunderground v.1.15,2013-04-27 15:43:00,
2013-04-27 08:49:00,44.9,44.6,30.29,NE,53,3.0,6.0,99,0.00,,,0.00,Wunderground v.1.15,2013-04-27 15:49:00,
2013-04-27 08:54:00,45.1,44.8,30.29,NE,53,2.0,6.0,99,0.00,,,0.00,Wunderground v.1.15,2013-04-27 15:54:00,
2013-04-27 09:00:00,45.4,45.1,30.29,NE,53,3.0,6.0,99,0.00,,,0.00,Wunderground v.1.15,2013-04-27 16:00:00,
2013-04-27 09:05:00,45.1,44.8,30.30,NNE,22,4.0,6.0,99,0.00,,,0.00,Wunderground v.1.15,2013-04-27 16:05:00,
2013-04-27 09:11:00,44.5,44.0,30.30,NNW,331,4.0,6.0,98,0.00,,,0.00,Wunderground v.1.15,2013-04-27 16:11:00,
2013-04-27 09:16:00,43.8,43.3,30.30,NNW,340,5.0,7.0,98,0.00,,,0.00,Wunderground v.1.15,2013-04-27 16:16:00,
2013-04-27 09:22:00,43.0,42.5,30.30,NNW,338,5.0,6.0,98,0.00,,,0.00,Wunderground v.1.15,2013-04-27 16:22:00,
2013-04-27 09:28:00,42.4,41.9,30.30,North,355,5.0,7.0,98,0.00,,,0.00,Wunderground v.1.15,2013-04-27 16:28:00,
2013-04-27 09:33:00,42.5,42.0,30.30,North,355,6.0,7.0,98,0.00,,,0.00,Wunderground v.1.15,2013-04-27 16:33:00,
2013-04-27 09:38:00,42.8,42.5,30.30,North,351,6.0,8.0,99,0.00,,,0.00,Wunderground v.1.15,2013-04-27 16:38:00,
2013-04-27 09:44:00,43.4,43.1,30.31,North,355,7.0,11.0,99,0.00,,,0.00,Wunderground v.1.15,2013-04-27 16:44:00,
2013-04-27 09:49:00,43.8,43.5,30.31,North,355,8.0,11.0,99,0.00,,,0.00,Wunderground v.1.15,2013-04-27 16:49:00,
2013-04-27 09:54:00,44.0,43.7,30.32,North,355,9.0,10.0,99,0.00,,,0.00,Wunderground v.1.15,2013-04-27 16:54:00,
2013-04-27 09:59:00,44.1,43.8,30.32,North,360,9.0,10.0,99,0.00,,,0.00,Wunderground v.1.15,2013-04-27 16:59:00,
2013-04-27 10:05:00,44.3,44.0,30.32,North,351,9.0,11.0,99,0.00,,,0.00,Wunderground v.1.15,2013-04-27 17:05:00,
2013-04-27 10:11:00,44.0,43.7,30.32,North,350,10.0,11.0,99,0.00,,,0.00,Wunderground v.1.15,2013-04-27 17:11:00,
2013-04-27 10:17:00,44.2,43.9,30.32,North,355,10.0,11.0,99,0.00,,,0.00,Wunderground v.1.15,2013-04-27 17:17:00,
2013-04-27 10:23:00,44.7,44.4,30.32,NNW,348,8.0,9.0,99,0.00,,,0.00,Wunderground v.1.15,2013-04-27 17:23:00,
2013-04-27 10:28:00,45.0,44.7,30.32,North,355,7.0,9.0,99,0.00,,,0.00,Wunderground v.1.15,2013-04-27 17:28:00,
2013-04-27 10:34:00,45.3,45.0,30.32,North,355,7.0,8.0,99,0.00,,,0.00,Wunderground v.1.15,2013-04-27 17:34:00,
2013-04-27 10:40:00,45.2,44.9,30.32,North,355,7.0,7.0,99,0.00,,,0.00,Wunderground v.1.15,2013-04-27 17:40:00,
2013-04-27 10:46:00,45.4,45.1,30.32,North,355,7.0,8.0,99,0.00,,,0.00,Wunderground v.1.15,2013-04-27 17:46:00,
2013-04-27 10:51:00,45.6,45.3,30.33,North,351,8.0,10.0,99,0.00,,,0.00,Wunderground v.1.15,2013-04-27 17:51:00,
2013-04-27 10:57:00,45.9,45.4,30.33,North,355,8.0,10.0,98,0.00,,,0.00,Wunderground v.1.15,2013-04-27 17:57:00,
2013-04-27 11:03:00,45.9,45.4,30.33,North,360,8.0,8.0,98,0.00,,,0.00,Wunderground v.1.15,2013-04-27 18:03:00,
2013-04-27 11:09:00,46.3,45.8,30.33,North,355,7.0,8.0,98,0.00,,,0.00,Wunderground v.1.15,2013-04-27 18:09:00,
2013-04-27 11:14:00,46.3,45.8,30.33,North,349,7.0,9.0,98,0.00,,,0.00,Wunderground v.1.15,2013-04-27 18:14:00,
2013-04-27 11:19:00,46.4,45.6,30.33,North,355,8.0,8.0,97,0.00,,,0.00,Wunderground v.1.15,2013-04-27 18:19:00,
2013-04-27 11:24:00,46.6,45.8,30.33,North,355,7.0,9.0,97,0.00,,,0.00,Wunderground v.1.15,2013-04-27 18:24:00,
2013-04-27 11:31:00,46.5,45.7,30.33,North,355,7.0,9.0,97,0.00,,,0.00,Wunderground v.1.15,2013-04-27 18:31:00,
2013-04-27 11:36:00,46.8,46.0,30.33,North,355,7.0,9.0,97,0.00,,,0.00,Wunderground v.1.15,2013-04-27 18:36:00,
2013-04-27 11:42:00,46.8,46.0,30.33,North,350,7.0,7.0,97,0.00,,,0.00,Wunderground v.1.15,2013-04-27 18:42:00,
2013-04-27 11:47:00,46.9,46.1,30.33,NNW,345,7.0,8.0,97,0.00,,,0.00,Wunderground v.1.15,2013-04-27 18:47:00,
2013-04-27 11:53:00,46.8,45.7,30.33,NNW,348,7.0,8.0,96,0.00,,,0.00,Wunderground v.1.15,2013-04-27 18:53:00,
2013-04-27 11:58:00,46.8,45.7,30.33,NNW,345,8.0,11.0,96,0.00,,,0.00,Wunderground v.1.15,2013-04-27 18:58:00,
2013-04-27 12:04:00,46.8,45.7,30.33,North,355,8.0,9.0,96,0.00,,,0.00,Wunderground v.1.15,2013-04-27 19:04:00,
2013-04-27 12:10:00,46.9,45.8,30.33,NNW,342,8.0,8.0,96,0.00,,,0.00,Wunderground v.1.15,2013-04-27 19:10:00,
2013-04-27 12:16:00,46.9,45.5,30.33,North,355,8.0,9.0,95,0.00,,,0.00,Wunderground v.1.15,2013-04-27 19:16:00,
2013-04-27 12:21:00,47.0,45.6,30.33,NNW,348,7.0,7.0,95,0.00,,,0.00,Wunderground v.1.15,2013-04-27 19:21:00,
2013-04-27 12:26:00,47.1,45.7,30.33,North,360,7.0,9.0,95,0.00,,,0.00,Wunderground v.1.15,2013-04-27 19:26:00,
2013-04-27 12:32:00,47.3,45.9,30.33,NNW,346,7.0,8.0,95,0.00,,,0.00,Wunderground v.1.15,2013-04-27 19:32:00,
2013-04-27 12:38:00,47.4,46.0,30.33,North,360,6.0,9.0,95,0.00,,,0.00,Wunderground v.1.15,2013-04-27 19:38:00,
2013-04-27 12:44:00,47.3,45.7,30.33,North,355,7.0,10.0,94,0.00,,,0.00,Wunderground v.1.15,2013-04-27 19:44:00,
2013-04-27 12:50:00,47.3,45.7,30.33,North,355,7.0,8.0,94,0.00,,,0.00,Wunderground v.1.15,2013-04-27 19:50:00,
2013-04-27 12:55:00,47.4,46.0,30.32,North,349,7.0,9.0,95,0.00,,,0.00,Wunderground v.1.15,2013-04-27 19:55:00,
2013-04-27 13:00:00,47.4,45.8,30.32,North,350,8.0,8.0,94,0.00,,,0.00,Wunderground v.1.15,2013-04-27 20:00:00,
2013-04-27 13:05:00,47.6,46.0,30.32,North,350,7.0,8.0,94,0.00,,,0.00,Wunderground v.1.15,2013-04-27 20:05:00,
2013-04-27 13:12:00,47.4,45.8,30.32,North,351,7.0,8.0,94,0.00,,,0.00,Wunderground v.1.15,2013-04-27 20:12:00,
2013-04-27 13:17:00,47.5,45.9,30.32,NNW,341,7.0,8.0,94,0.00,,,0.00,Wunderground v.1.15,2013-04-27 20:17:00,
2013-04-27 13:23:00,47.9,46.3,30.32,NNW,335,7.0,8.0,94,0.00,,,0.00,Wunderground v.1.15,2013-04-27 20:23:00,
2013-04-27 13:29:00,47.8,46.2,30.31,NNW,340,7.0,9.0,94,0.00,,,0.00,Wunderground v.1.15,2013-04-27 20:29:00,
2013-04-27 13:34:00,47.7,46.1,30.31,North,350,7.0,9.0,94,0.00,,,0.00,Wunderground v.1.15,2013-04-27 20:34:00,
2013-04-27 13:40:00,47.5,45.9,30.31,NNW,346,7.0,7.0,94,0.00,,,0.00,Wunderground v.1.15,2013-04-27 20:40:00,
2013-04-27 13:45:00,47.8,46.2,30.31,North,355,7.0,7.0,94,0.00,,,0.00,Wunderground v.1.15,2013-04-27 20:45:00,
2013-04-27 13:51:00,47.9,46.3,30.30,NNW,346,6.0,6.0,94,0.00,,,0.00,Wunderground v.1.15,2013-04-27 20:51:00,
2013-04-27 13:56:00,48.2,46.3,30.31,NNW,348,6.0,7.0,93,0.00,,,0.00,Wunderground v.1.15,2013-04-27 20:56:00,
2013-04-27 14:02:00,48.0,46.1,30.31,North,350,6.0,8.0,93,0.00,,,0.00,Wunderground v.1.15,2013-04-27 21:02:00,
2013-04-27 14:07:00,48.1,46.2,30.31,NNW,347,7.0,8.0,93,0.00,,,0.00,Wunderground v.1.15,2013-04-27 21:07:00,
2013-04-27 14:13:00,48.1,46.2,30.31,NNW,346,6.0,6.0,93,0.00,,,0.00,Wunderground v.1.15,2013-04-27 21:13:00,
2013-04-27 14:18:00,48.1,46.2,30.30,NNW,344,6.0,6.0,93,0.00,,,0.00,Wunderground v.1.15,2013-04-27 21:18:00,
2013-04-27 14:23:00,48.0,46.1,30.30,North,350,6.0,7.0,93,0.00,,,0.00,Wunderground v.1.15,2013-04-27 21:23:00,
2013-04-27 14:29:00,47.7,45.5,30.31,NNW,348,6.0,7.0,92,0.00,,,0.00,Wunderground v.1.15,2013-04-27 21:29:00,
2013-04-27 14:35:00,47.8,45.9,30.30,North,351,7.0,8.0,93,0.00,,,0.00,Wunderground v.1.15,2013-04-27 21:35:00,
2013-04-27 14:40:00,47.9,46.0,30.30,NNW,342,6.0,6.0,93,0.00,,,0.00,Wunderground v.1.15,2013-04-27 21:40:00,
2013-04-27 14:46:00,48.0,46.1,30.30,North,351,6.0,7.0,93,0.00,,,0.00,Wunderground v.1.15,2013-04-27 21:46:00,
2013-04-27 14:53:00,48.1,45.9,30.30,NNW,340,7.0,7.0,92,0.00,,,0.00,Wunderground v.1.15,2013-04-27 21:53:00,
2013-04-27 14:58:00,48.2,46.0,30.30,North,355,7.0,9.0,92,0.00,,,0.00,Wunderground v.1.15,2013-04-27 21:58:00,
2013-04-27 15:04:00,48.2,46.0,30.31,North,355,7.0,8.0,92,0.00,,,0.00,Wunderground v.1.15,2013-04-27 22:04:00,
2013-04-27 15:10:00,47.9,45.7,30.30,North,350,8.0,8.0,92,0.00,,,0.00,Wunderground v.1.15,2013-04-27 22:10:00,
2013-04-27 15:16:00,48.0,45.8,30.31,North,350,8.0,10.0,92,0.00,,,0.00,Wunderground v.1.15,2013-04-27 22:16:00,
2013-04-27 15:21:00,48.0,46.1,30.31,NNW,329,8.0,9.0,93,0.00,,,0.00,Wunderground v.1.15,2013-04-27 22:21:00,
2013-04-27 15:27:00,48.6,46.7,30.31,NNW,346,7.0,9.0,93,0.00,,,0.00,Wunderground v.1.15,2013-04-27 22:27:00,
2013-04-27 15:33:00,48.4,46.2,30.31,North,360,8.0,9.0,92,0.00,,,0.00,Wunderground v.1.15,2013-04-27 22:33:00,
2013-04-27 15:39:00,48.5,46.3,30.30,North,360,8.0,9.0,92,0.00,,,0.00,Wunderground v.1.15,2013-04-27 22:39:00,
2013-04-27 15:44:00,48.3,45.8,30.30,North,355,8.0,8.0,91,0.00,,,0.00,Wunderground v.1.15,2013-04-27 22:44:00,
2013-04-27 15:50:00,48.4,46.2,30.30,North,360,8.0,8.0,92,0.00,,,0.00,Wunderground v.1.15,2013-04-27 22:50:00,
2013-04-27 15:56:00,48.2,46.0,30.30,North,355,7.0,9.0,92,0.00,,,0.00,Wunderground v.1.15,2013-04-27 22:56:00,
2013-04-27 16:01:00,48.4,46.2,30.30,North,351,7.0,7.0,92,0.00,,,0.00,Wunderground v.1.15,2013-04-27 23:01:00,
2013-04-27 16:06:00,48.4,46.2,30.30,North,5,7.0,9.0,92,0.00,,,0.00,Wunderground v.1.15,2013-04-27 23:06:00,
2013-04-27 16:11:00,48.5,46.3,30.29,North,355,7.0,7.0,92,0.00,,,0.00,Wunderground v.1.15,2013-04-27 23:11:00,
2013-04-27 16:16:00,48.8,46.6,30.29,North,355,7.0,7.0,92,0.00,,,0.00,Wunderground v.1.15,2013-04-27 23:16:00,
2013-04-27 16:22:00,49.1,46.9,30.29,North,350,5.0,7.0,92,0.00,,,0.00,Wunderground v.1.15,2013-04-27 23:22:00,
2013-04-27 16:27:00,49.0,46.8,30.29,North,355,6.0,7.0,92,0.00,,,0.00,Wunderground v.1.15,2013-04-27 23:27:00,
2013-04-27 16:33:00,48.9,46.7,30.29,North,355,6.0,7.0,92,0.00,,,0.00,Wunderground v.1.15,2013-04-27 23:33:00,
2013-04-27 16:38:00,48.7,46.5,30.29,North,355,6.0,7.0,92,0.00,,,0.00,Wunderground v.1.15,2013-04-27 23:38:00,
2013-04-27 16:45:00,48.6,46.4,30.29,North,355,7.0,8.0,92,0.00,,,0.00,Wunderground v.1.15,2013-04-27 23:45:00,
2013-04-27 16:50:00,48.5,46.3,30.29,North,355,7.0,7.0,92,0.00,,,0.00,Wunderground v.1.15,2013-04-27 23:50:00,
2013-04-27 16:55:00,48.5,46.6,30.29,North,355,7.0,7.0,93,0.00,,,0.00,Wunderground v.1.15,2013-04-27 23:55:00,
2013-04-27 17:00:00,48.5,46.3,30.29,NNW,348,7.0,8.0,92,0.00,,,0.00,Wunderground v.1.15,2013-04-28 00:00:00,
2013-04-27 17:06:00,48.6,46.7,30.29,North,349,7.0,9.0,93,0.00,,,0.00,Wunderground v.1.15,2013-04-28 00:06:00,
2013-04-27 17:12:00,48.7,46.8,30.28,NNW,340,7.0,7.0,93,0.00,,,0.00,Wunderground v.1.15,2013-04-28 00:12:00,
2013-04-27 17:18:00,48.8,46.6,30.29,NNW,340,7.0,9.0,92,0.00,,,0.00,Wunderground v.1.15,2013-04-28 00:18:00,
2013-04-27 17:23:00,48.9,46.7,30.29,NNW,348,8.0,11.0,92,0.00,,,0.00,Wunderground v.1.15,2013-04-28 00:23:00,
2013-04-27 17:28:00,48.7,46.2,30.28,NNW,348,8.0,11.0,91,0.00,,,0.00,Wunderground v.1.15,2013-04-28 00:28:00,
2013-04-27 17:34:00,48.9,46.4,30.29,NNW,347,9.0,11.0,91,0.00,,,0.00,Wunderground v.1.15,2013-04-28 00:34:00,
2013-04-27 17:39:00,48.5,45.7,30.29,NNW,341,9.0,12.0,90,0.00,,,0.00,Wunderground v.1.15,2013-04-28 00:39:00,
2013-04-27 17:44:00,48.6,45.8,30.28,North,350,10.0,11.0,90,0.00,,,0.00,Wunderground v.1.15,2013-04-28 00:44:00,
2013-04-27 17:50:00,48.4,45.6,30.28,NNW,341,10.0,11.0,90,0.00,,,0.00,Wunderground v.1.15,2013-04-28 00:50:00,
2013-04-27 17:56:00,48.3,45.8,30.29,North,355,10.0,11.0,91,0.00,,,0.00,Wunderground v.1.15,2013-04-28 00:56:00,
2013-04-27 18:02:00,48.2,45.7,30.29,NNW,336,9.0,9.0,91,0.00,,,0.00,Wunderground v.1.15,2013-04-28 01:02:00,
2013-04-27 18:08:00,47.7,45.2,30.29,NNW,348,9.0,12.0,91,0.00,,,0.00,Wunderground v.1.15,2013-04-28 01:08:00,
2013-04-27 18:13:00,47.4,45.2,30.29,North,355,10.0,13.0,92,0.00,,,0.00,Wunderground v.1.15,2013-04-28 01:13:00,
2013-04-27 18:18:00,47.3,45.1,30.29,NNW,347,11.0,13.0,92,0.00,,,0.00,Wunderground v.1.15,2013-04-28 01:18:00,
2013-04-27 18:25:00,47.3,45.1,30.29,North,355,10.0,11.0,92,0.00,,,0.00,Wunderground v.1.15,2013-04-28 01:25:00,
2013-04-27 18:31:00,47.3,45.1,30.29,North,350,9.0,10.0,92,0.00,,,0.00,Wunderground v.1.15,2013-04-28 01:31:00,
2013-04-27 18:37:00,47.6,45.7,30.29,North,10,6.0,10.0,93,0.00,,,0.00,Wunderground v.1.15,2013-04-28 01:37:00,
2013-04-27 18:43:00,47.6,45.7,30.29,North,360,4.0,6.0,93,0.00,,,0.00,Wunderground v.1.15,2013-04-28 01:43:00,
2013-04-27 18:49:00,47.4,45.5,30.29,North,5,5.0,7.0,93,0.00,,,0.00,Wunderground v.1.15,2013-04-28 01:49:00,
2013-04-27 18:54:00,47.5,45.6,30.29,NNE,17,4.0,6.0,93,0.00,,,0.00,Wunderground v.1.15,2013-04-28 01:54:00,
2013-04-27 19:01:00,47.4,45.5,30.29,NNW,347,5.0,7.0,93,0.00,,,0.00,Wunderground v.1.15,2013-04-28 02:01:00,
2013-04-27 19:06:00,47.2,45.3,30.29,North,355,6.0,8.0,93,0.00,,,0.00,Wunderground v.1.15,2013-04-28 02:06:00,
2013-04-27 19:12:00,47.1,45.2,30.29,North,355,8.0,10.0,93,0.00,,,0.00,Wunderground v.1.15,2013-04-28 02:12:00,
2013-04-27 19:17:00,47.0,45.1,30.29,North,355,8.0,11.0,93,0.00,,,0.00,Wunderground v.1.15,2013-04-28 02:17:00,
2013-04-27 19:22:00,47.1,45.2,30.29,North,360,8.0,11.0,93,0.00,,,0.00,Wunderground v.1.15,2013-04-28 02:22:00,
2013-04-27 19:28:00,47.0,45.1,30.29,North,355,10.0,12.0,93,0.00,,,0.00,Wunderground v.1.15,2013-04-28 02:28:00,
2013-04-27 19:33:00,46.9,45.0,30.29,North,360,10.0,11.0,93,0.00,,,0.00,Wunderground v.1.15,2013-04-28 02:33:00,
2013-04-27 19:38:00,46.9,45.0,30.29,North,360,8.0,11.0,93,0.00,,,0.00,Wunderground v.1.15,2013-04-28 02:38:00,
2013-04-27 19:44:00,47.0,45.1,30.29,NNE,12,6.0,9.0,93,0.00,,,0.00,Wunderground v.1.15,2013-04-28 02:44:00,
2013-04-27 19:50:00,47.0,45.1,30.29,North,360,5.0,5.0,93,0.00,,,0.00,Wunderground v.1.15,2013-04-28 02:50:00,
2013-04-27 19:56:00,47.0,45.1,30.29,NNE,30,5.0,10.0,93,0.00,,,0.00,Wunderground v.1.15,2013-04-28 02:56:00,
2013-04-27 20:01:00,47.0,45.1,30.29,NNE,17,5.0,6.0,93,0.00,,,0.00,Wunderground v.1.15,2013-04-28 03:01:00,
2013-04-27 20:07:00,46.9,45.0,30.29,NNE,30,4.0,6.0,93,0.00,,,0.00,Wunderground v.1.15,2013-04-28 03:07:00,
2013-04-27 20:12:00,47.0,45.4,30.28,North,9,4.0,6.0,94,0.00,,,0.00,Wunderground v.1.15,2013-04-28 03:12:00,
2013-04-27 20:18:00,47.0,45.1,30.28,NE,34,4.0,8.0,93,0.00,,,0.00,Wunderground v.1.15,2013-04-28 03:18:00,
2013-04-27 20:23:00,46.7,44.8,30.28,NNE,15,4.0,7.0,93,0.00,,,0.00,Wunderground v.1.15,2013-04-28 03:23:00,
2013-04-27 20:30:00,46.7,44.8,30.29,North,360,5.0,5.0,93,0.00,,,0.00,Wunderground v.1.15,2013-04-28 03:30:00,
2013-04-27 20:35:00,46.6,44.7,30.29,North,5,6.0,9.0,93,0.00,,,0.00,Wunderground v.1.15,2013-04-28 03:35:00,
2013-04-27 20:40:00,46.6,44.7,30.29,North,355,7.0,10.0,93,0.00,,,0.00,Wunderground v.1.15,2013-04-28 03:40:00,
2013-04-27 20:46:00,46.5,44.6,30.29,North,355,8.0,12.0,93,0.00,,,0.00,Wunderground v.1.15,2013-04-28 03:46:00,
2013-04-27 20:51:00,46.5,44.6,30.29,NNE,20,7.0,9.0,93,0.00,,,0.00,Wunderground v.1.15,2013-04-28 03:51:00,
2013-04-27 20:57:00,46.6,44.7,30.29,NNE,25,5.0,9.0,93,0.00,,,0.00,Wunderground v.1.15,2013-04-28 03:57:00,
2013-04-27 21:02:00,46.6,44.7,30.29,NNE,33,4.0,6.0,93,0.00,,,0.00,Wunderground v.1.15,2013-04-28 04:02:00,
2013-04-27 21:03:00,46.6,44.7,30.29,North,5,4.0,6.0,93,0.00,,,0.00,Wunderground v.1.15,2013-04-28 04:03:00,
2013-04-27 21:05:00,46.7,44.8,30.29,NNW,346,4.0,6.0,93,0.00,,,0.00,Wunderground v.1.15,2013-04-28 04:05:00,
2013-04-27 21:07:00,46.8,44.9,30.29,North,355,4.0,8.0,93,0.00,,,0.00,Wunderground v.1.15,2013-04-28 04:07:00,
2013-04-27 21:13:00,46.7,44.8,30.29,North,360,5.0,6.0,93,0.00,,,0.00,Wunderground v.1.15,2013-04-28 04:13:00,
2013-04-27 21:18:00,46.6,44.7,30.29,North,350,5.0,6.0,93,0.00,,,0.00,Wunderground v.1.15,2013-04-28 04:18:00,
2013-04-27 21:23:00,46.5,44.6,30.29,North,360,6.0,11.0,93,0.00,,,0.00,Wunderground v.1.15,2013-04-28 04:23:00,
2013-04-27 21:28:00,46.4,44.2,30.29,North,355,7.0,11.0,92,0.00,,,0.00,Wunderground v.1.15,2013-04-28 04:28:00,
2013-04-27 21:34:00,46.4,44.2,30.29,North,355,7.0,7.0,92,0.00,,,0.00,Wunderground v.1.15,2013-04-28 04:34:00,
2013-04-27 21:40:00,46.5,44.3,30.30,North,355,6.0,6.0,92,0.00,,,0.00,Wunderground v.1.15,2013-04-28 04:40:00,
2013-04-27 21:45:00,46.4,44.2,30.30,North,355,6.0,10.0,92,0.00,,,0.00,Wunderground v.1.15,2013-04-28 04:45:00,
2013-04-27 21:50:00,46.3,44.1,30.30,North,355,7.0,7.0,92,0.00,,,0.00,Wunderground v.1.15,2013-04-28 04:50:00,
2013-04-27 21:56:00,46.3,44.1,30.30,North,360,7.0,11.0,92,0.00,,,0.00,Wunderground v.1.15,2013-04-28 04:56:00,
2013-04-27 22:01:00,46.3,44.1,30.30,NNE,27,8.0,8.0,92,0.00,,,0.00,Wunderground v.1.15,2013-04-28 05:01:00,
2013-04-27 22:07:00,46.2,44.0,30.31,North,355,6.0,8.0,92,0.00,,,0.00,Wunderground v.1.15,2013-04-28 05:07:00,
2013-04-27 22:13:00,46.3,44.1,30.31,NNW,346,5.0,6.0,92,0.00,,,0.00,Wunderground v.1.15,2013-04-28 05:13:00,
2013-04-27 22:18:00,46.3,44.1,30.30,North,9,5.0,10.0,92,0.00,,,0.00,Wunderground v.1.15,2013-04-28 05:18:00,
2013-04-27 22:23:00,46.4,44.2,30.31,NNE,19,5.0,6.0,92,0.00,,,0.00,Wunderground v.1.15,2013-04-28 05:23:00,
2013-04-27 22:28:00,46.3,44.1,30.31,NE,55,4.0,8.0,92,0.00,,,0.00,Wunderground v.1.15,2013-04-28 05:28:00,
2013-04-27 22:34:00,46.3,44.1,30.31,ENE,60,5.0,11.0,92,0.00,,,0.00,Wunderground v.1.15,2013-04-28 05:34:00,
2013-04-27 22:40:00,46.3,44.1,30.31,NE,49,6.0,6.0,92,0.00,,,0.00,Wunderground v.1.15,2013-04-28 05:40:00,
2013-04-27 22:46:00,46.5,44.3,30.31,ENE,68,6.0,7.0,92,0.00,,,0.00,Wunderground v.1.15,2013-04-28 05:46:00,
2013-04-27 22:51:00,46.5,44.3,30.31,ENE,59,6.0,7.0,92,0.00,,,0.00,Wunderground v.1.15,2013-04-28 05:51:00,
2013-04-27 22:56:00,46.5,44.3,30.31,NE,44,7.0,9.0,92,0.00,,,0.00,Wunderground v.1.15,2013-04-28 05:56:00,
2013-04-27 23:02:00,46.6,44.4,30.31,ENE,60,6.0,8.0,92,0.00,,,0.00,Wunderground v.1.15,2013-04-28 06:02:00,
2013-04-27 23:07:00,46.5,44.3,30.30,ENE,62,6.0,11.0,92,0.00,,,0.00,Wunderground v.1.15,2013-04-28 06:07:00,
2013-04-27 23:12:00,46.6,44.4,30.31,ENE,58,7.0,7.0,92,0.00,,,0.00,Wunderground v.1.15,2013-04-28 06:12:00,
2013-04-27 23:18:00,46.6,44.4,30.31,NE,55,6.0,8.0,92,0.00,,,0.00,Wunderground v.1.15,2013-04-28 06:18:00,
2013-04-27 23:24:00,46.6,44.1,30.31,ENE,63,5.0,6.0,91,0.00,,,0.00,Wunderground v.1.15,2013-04-28 06:24:00,
2013-04-27 23:29:00,46.7,44.2,30.30,ENE,63,5.0,6.0,91,0.00,,,0.00,Wunderground v.1.15,2013-04-28 06:29:00,
2013-04-27 23:34:00,46.8,44.3,30.30,ENE,59,4.0,7.0,91,0.00,,,0.00,Wunderground v.1.15,2013-04-28 06:34:00,
2013-04-27 23:40:00,46.8,44.3,30.30,ENE,61,4.0,7.0,91,0.00,,,0.00,Wunderground v.1.15,2013-04-28 06:40:00,
2013-04-27 23:45:00,46.8,44.3,30.30,NE,55,6.0,9.0,91,0.00,,,0.00,Wunderground v.1.15,2013-04-28 06:45:00,
2013-04-27 23:52:00,46.8,44.6,30.30,ENE,65,6.0,8.0,92,0.00,,,0.00,Wunderground v.1.15,2013-04-28 06:52:00,
2013-04-27 23:58:00,46.8,44.6,30.30,ENE,59,5.0,8.0,92,0.00,,,0.00,Wunderground v.1.15,2013-04-28 06:58:00,